Time;durP1;ratioP1;P1;durP2;ratioP2;P2;SDS_P1;SDS_P2;PMS_P1;PMS_P2;Temp;Humidity;BMP_temperature;BMP_pressure;BME280_temperature;BME280_humidity;BME280_pressure;Samples;Min_cycle;Max_cycle;Signal;HPM_P1;HPM_P2
2023/01/09 00:01:29;;;;;;;45.05;18.55;;;;;;;3.22;100.00;102561.19;5000790;28;20045;-79
2023/01/09 00:03:55;;;;;;;84.25;17.20;;;;;;;2.92;100.00;102304.28;4996428;28;20510;-80
2023/01/09 00:06:20;;;;;;;30.30;16.08;;;;;;;2.47;100.00;102121.88;5006490;28;20057;-80
2023/01/09 00:08:45;;;;;;;30.92;17.48;;;;;;;3.73;100.00;101898.13;4996510;28;20133;-78
2023/01/09 00:11:11;;;;;;;48.20;19.02;;;;;;;2.39;100.00;101952.13;4996316;28;20492;-78
2023/01/09 00:13:37;;;;;;;71.13;17.15;;;;;;;2.23;100.00;101512.75;5008212;28;20102;-78
2023/01/09 00:16:07;;;;;;;46.33;18.30;;;;;;;2.41;100.00;101568.06;5001367;28;20046;-78
2023/01/09 00:18:33;;;;;;;32.13;17.00;;;;;;;1.61;100.00;101477.56;4999205;28;20050;-79
2023/01/09 00:21:03;;;;;;;92.38;20.13;;;;;;;2.02;100.00;101839.56;5000567;28;20052;-79
2023/01/09 00:23:29;;;;;;;41.75;18.63;;;;;;;1.82;100.00;101884.09;5000479;28;20049;-77
2023/01/09 00:26:06;;;;;;;53.05;16.55;;;;;;;1.46;100.00;101566.47;5006278;28;20034;-77
2023/01/09 00:28:33;;;;;;;54.40;19.63;;;;;;;1.48;100.00;101663.13;5008746;28;20140;-78
2023/01/09 00:31:00;;;;;;;97.63;20.48;;;;;;;1.95;100.00;101691.59;5008221;28;20042;-79
2023/01/09 00:33:35;;;;;;;115.78;21.05;;;;;;;1.40;100.00;101604.88;5006652;28;20069;-79
2023/01/09 00:36:00;;;;;;;113.32;19.33;;;;;;;1.85;100.00;101973.16;5004233;28;20100;-79
2023/01/09 00:38:27;;;;;;;79.70;18.25;;;;;;;1.59;100.00;101697.38;5009869;28;20096;-80
2023/01/09 00:40:54;;;;;;;94.18;20.80;;;;;;;1.33;100.00;101646.72;5007943;28;20454;-78
2023/01/09 00:43:21;;;;;;;55.83;18.30;;;;;;;1.40;100.00;101679.88;5017907;28;20058;-78
2023/01/09 00:45:47;;;;;;;50.50;18.42;;;;;;;1.17;100.00;101633.72;5017844;28;20038;-80
2023/01/09 00:48:23;;;;;;;145.50;27.25;;;;;;;1.60;100.00;101706.91;5009746;28;20048;-78
2023/01/09 00:50:50;;;;;;;115.53;26.55;;;;;;;1.74;100.00;101723.22;5001452;28;20049;-80
2023/01/09 00:53:19;;;;;;;34.17;14.38;;;;;;;1.56;100.00;101666.13;5006154;28;20038;-81
2023/01/09 00:55:45;;;;;;;93.68;21.17;;;;;;;1.31;100.00;101725.00;5002518;28;20042;-79
2023/01/09 00:58:11;;;;;;;98.93;23.70;;;;;;;1.28;100.00;101668.84;5005730;28;20042;-80
2023/01/09 01:00:36;;;;;;;121.38;21.58;;;;;;;1.86;100.00;101800.66;5005266;28;20077;-77
2023/01/09 01:03:02;;;;;;;56.80;16.50;;;;;;;1.67;100.00;101734.03;5011137;28;20050;-80
2023/01/09 01:08:13;;;;;;;54.08;16.42;;;;;;;1.48;100.00;101673.47;5017735;28;20044;-77
2023/01/09 01:10:39;;;;;;;86.95;20.15;;;;;;;1.94;100.00;101951.22;5003692;28;20045;-79
2023/01/09 01:13:05;;;;;;;25.60;15.95;;;;;;;1.92;100.00;101794.94;5019761;28;20394;-78
2023/01/09 01:15:31;;;;;;;53.00;15.15;;;;;;;1.53;100.00;101520.25;5006280;28;20057;-78
2023/01/09 01:17:56;;;;;;;28.70;17.52;;;;;;;2.14;100.00;101640.00;5001472;28;20563;-78
2023/01/09 01:20:22;;;;;;;24.05;15.35;;;;;;;2.03;100.00;101475.44;5004736;28;20522;-78
2023/01/09 01:22:47;;;;;;;116.38;20.63;;;;;;;2.04;100.00;101452.25;5007284;28;20033;-76
2023/01/09 01:25:15;;;;;;;96.15;20.27;;;;;;;1.47;100.00;101710.50;5006709;28;20050;-77
2023/01/09 01:27:42;;;;;;;150.13;24.33;;;;;;;1.51;100.00;101493.41;5007610;28;20080;-77
2023/01/09 01:30:10;;;;;;;174.23;26.77;;;;;;;1.44;100.00;101487.91;5008917;28;20096;-79
2023/01/09 01:32:36;;;;;;;188.75;31.08;;;;;;;1.15;100.00;101566.44;5000186;28;20068;-78
2023/01/09 01:35:02;;;;;;;158.27;24.35;;;;;;;1.18;100.00;101537.28;5009015;28;20045;-78
2023/01/09 01:37:28;;;;;;;198.75;28.02;;;;;;;1.21;100.00;101771.00;5003007;28;20054;-78
2023/01/09 01:39:54;;;;;;;71.85;20.73;;;;;;;1.19;100.00;101808.78;4998067;28;20482;-79
2023/01/09 01:42:19;;;;;;;66.97;17.02;;;;;;;0.55;100.00;101480.34;4999135;28;20058;-79
2023/01/09 01:45:03;;;;;;;84.15;19.90;;;;;;;1.19;100.00;101633.00;4996054;28;20056;-76
2023/01/09 01:47:47;;;;;;;147.40;30.13;;;;;;;1.12;100.00;101635.16;4995630;28;20038;-78
2023/01/09 01:50:28;;;;;;;155.80;26.15;;;;;;;0.72;100.00;101561.38;5007328;28;20030;-80
2023/01/09 01:53:17;;;;;;;128.20;25.38;;;;;;;0.91;100.00;101608.97;4998163;28;20046;-78
2023/01/09 01:56:12;;;;;;;79.13;21.00;;;;;;;0.97;100.00;101604.16;5005391;28;20153;-81
2023/01/09 01:58:44;;;;;;;187.93;28.42;;;;;;;0.58;100.00;101542.50;5004141;28;20115;-77
2023/01/09 02:01:10;;;;;;;240.05;39.97;;;;;;;0.91;100.00;101575.38;5003520;28;20145;-79
2023/01/09 02:03:38;;;;;;;269.58;32.67;;;;;;;0.91;100.00;101939.69;5002619;28;20180;-79
2023/01/09 02:06:05;;;;;;;193.98;28.67;;;;;;;1.21;100.00;101594.31;5002864;28;20042;-80
2023/01/09 02:08:30;;;;;;;383.65;42.72;;;;;;;0.91;100.00;101506.47;4998834;28;20038;-79
2023/01/09 02:10:56;;;;;;;231.52;28.13;;;;;;;0.91;100.00;101537.50;5002180;28;20080;-79
2023/01/09 02:13:23;;;;;;;307.65;38.80;;;;;;;1.02;100.00;101571.72;5001203;28;20145;-79
2023/01/09 02:16:16;;;;;;;408.83;44.60;;;;;;;0.96;100.00;101571.34;5002448;28;20230;-77
2023/01/09 02:18:50;;;;;;;80.10;17.58;;;;;;;1.00;100.00;101560.38;5000627;28;20057;-79
2023/01/09 02:21:27;;;;;;;90.28;19.83;;;;;;;0.43;100.00;101478.75;5004746;28;20137;-78
2023/01/09 02:23:59;;;;;;;229.25;28.20;;;;;;;1.02;100.00;101748.34;5007196;28;20073;-80
2023/01/09 02:26:37;;;;;;;82.63;22.50;;;;;;;0.81;100.00;101623.03;5000442;28;20046;-79
2023/01/09 02:29:30;;;;;;;34.30;14.98;;;;;;;0.77;100.00;101590.97;4998567;28;20064;-79
2023/01/09 02:32:41;;;;;;;83.65;18.88;;;;;;;0.95;100.00;101605.75;5008819;28;20062;-80
2023/01/09 02:35:19;;;;;;;73.65;16.60;;;;;;;0.59;100.00;101792.22;4998188;28;20062;-78
2023/01/09 02:37:45;;;;;;;64.00;16.45;;;;;;;0.34;100.00;101547.09;5002126;28;20619;-77
2023/01/09 02:40:34;;;;;;;157.90;27.20;;;;;;;-0.01;100.00;101483.06;5006662;28;20054;-79
2023/01/09 02:43:01;;;;;;;128.18;22.88;;;;;;;0.36;100.00;101591.97;5002015;28;20501;-80
2023/01/09 02:45:26;;;;;;;181.38;25.48;;;;;;;0.53;100.00;101567.16;5002650;28;20065;-78
2023/01/09 02:47:52;;;;;;;82.97;19.58;;;;;;;0.31;100.00;101566.69;5000508;28;20371;-80
2023/01/09 02:50:26;;;;;;;84.25;16.10;;;;;;;0.31;100.00;101536.63;5002368;28;20041;-79
2023/01/09 02:53:14;;;;;;;217.88;33.28;;;;;;;-0.11;100.00;101466.16;5005076;28;20038;-78
2023/01/09 02:55:54;;;;;;;109.43;21.67;;;;;;;0.47;100.00;101556.50;5012954;28;20052;-81
2023/01/09 02:58:40;;;;;;;123.28;24.17;;;;;;;0.36;100.00;101521.41;5003441;28;20046;-80
2023/01/09 03:01:28;;;;;;;87.40;17.63;;;;;;;-0.05;100.00;101450.16;4999773;28;20560;-81
2023/01/09 03:04:02;;;;;;;176.00;24.83;;;;;;;0.57;100.00;101571.72;4997245;28;20056;-79
2023/01/09 03:06:37;;;;;;;202.23;30.63;;;;;;;0.48;100.00;101521.22;5001244;28;20413;-79
2023/01/09 03:09:11;;;;;;;42.80;17.73;;;;;;;0.37;100.00;101495.66;5004997;28;20471;-80
2023/01/09 03:11:41;;;;;;;141.85;24.58;;;;;;;0.26;100.00;101576.75;5006428;28;20040;-80
2023/01/09 03:14:14;;;;;;;104.38;19.65;;;;;;;-0.10;100.00;101477.38;5009168;28;20036;-81
2023/01/09 03:16:41;;;;;;;;;;;;;;;0.31;100.00;101447.97;5013765;28;20556;-82
2023/01/09 03:19:12;;;;;;;217.77;32.38;;;;;;;-0.16;100.00;101444.38;5011944;28;19925;-81
2023/01/09 03:21:39;;;;;;;140.10;23.88;;;;;;;0.29;100.00;101467.63;5005726;28;20049;-80
2023/01/09 03:24:05;;;;;;;128.00;21.65;;;;;;;-0.19;100.00;101609.22;5008307;28;20046;-81
2023/01/09 03:26:31;;;;;;;258.85;30.98;;;;;;;0.08;100.00;101408.78;4999922;28;20061;-79
2023/01/09 03:28:58;;;;;;;62.97;18.60;;;;;;;0.14;100.00;101434.97;5008201;28;20049;-79
2023/01/09 03:31:23;;;;;;;149.95;21.02;;;;;;;-0.10;100.00;101371.59;5006618;28;20050;-80
2023/01/09 03:33:49;;;;;;;100.75;17.00;;;;;;;-0.61;100.00;101321.31;5008830;28;20053;-80
2023/01/09 03:36:16;;;;;;;166.40;27.00;;;;;;;-0.46;100.00;101403.03;4998082;28;20417;-84
2023/01/09 03:38:42;;;;;;;285.60;41.47;;;;;;;-0.01;100.00;101436.63;5006865;28;20073;-81
2023/01/09 03:41:07;;;;;;;344.75;50.20;;;;;;;-0.47;100.00;101298.16;5006453;28;20069;-80
2023/01/09 03:43:33;;;;;;;210.07;26.67;;;;;;;-0.44;100.00;101294.88;5005313;28;20046;-82
2023/01/09 03:45:59;;;;;;;65.18;17.70;;;;;;;-0.05;100.00;101376.25;5011405;28;20045;-78
2023/01/09 03:48:24;;;;;;;77.28;16.70;;;;;;;0.07;100.00;101370.91;5005881;28;20038;-79
2023/01/09 03:50:51;;;;;;;30.25;13.32;;;;;;;-0.50;100.00;101276.44;5007880;28;20057;-81
2023/01/09 03:53:19;;;;;;;186.23;22.63;;;;;;;-0.03;100.00;101427.91;5008972;28;20041;-78
2023/01/09 03:55:50;;;;;;;193.43;22.42;;;;;;;-0.34;100.00;101291.13;5004446;28;20046;-80
2023/01/09 03:58:16;;;;;;;233.10;31.48;;;;;;;-0.28;100.00;101323.31;5000073;28;20053;-80
2023/01/09 04:00:44;;;;;;;98.07;20.90;;;;;;;-0.29;100.00;101426.38;5004217;28;20059;-80
2023/01/09 04:03:11;;;;;;;47.50;12.27;;;;;;;-0.80;100.00;101227.47;5002663;28;20072;-80
2023/01/09 04:05:37;;;;;;;34.00;11.82;;;;;;;-0.94;100.00;101249.81;5006649;28;20084;-82
2023/01/09 04:08:03;;;;;;;92.47;20.58;;;;;;;-0.42;100.00;101643.91;5016537;28;20033;-82
2023/01/09 04:10:29;;;;;;;69.30;13.15;;;;;;;-0.68;100.00;101255.63;4999621;28;20052;-80
2023/01/09 04:12:54;;;;;;;130.27;19.83;;;;;;;-0.48;100.00;101455.31;4998478;28;20050;-82
2023/01/09 04:15:20;;;;;;;88.22;22.38;;;;;;;-0.91;100.00;101501.59;5000939;28;20766;-83
2023/01/09 04:17:45;;;;;;;44.33;12.70;;;;;;;-0.99;100.00;101214.31;4998816;28;20065;-83
2023/01/09 04:20:11;;;;;;;47.72;11.30;;;;;;;-0.29;100.00;101357.63;5001508;28;20038;-81
2023/01/09 04:22:37;;;;;;;199.90;20.90;;;;;;;-0.87;100.00;101254.56;5006596;28;20792;-84
2023/01/09 04:25:03;;;;;;;324.25;35.05;;;;;;;-0.08;100.00;101398.38;4997936;28;20505;-83
2023/01/09 04:27:29;;;;;;;42.78;11.15;;;;;;;-0.24;100.00;101325.25;5005677;28;20805;-83
2023/01/09 04:29:54;;;;;;;44.25;10.60;;;;;;;-0.43;100.00;101315.56;5003744;28;20100;-82
2023/01/09 04:32:20;;;;;;;119.20;20.85;;;;;;;-0.74;100.00;101234.69;5003731;28;20046;-77
2023/01/09 04:34:45;;;;;;;81.60;14.32;;;;;;;-0.08;100.00;101667.53;5009574;28;20026;-84
2023/01/09 04:37:11;;;;;;;80.47;16.13;;;;;;;-0.17;100.00;101514.78;5004675;28;20537;-83
2023/01/09 04:39:37;;;;;;;68.35;15.18;;;;;;;-0.73;100.00;101283.69;5002068;28;20057;-84
2023/01/09 04:42:03;;;;;;;79.50;14.68;;;;;;;-0.15;100.00;101541.56;4999084;28;20062;-84
2023/01/09 04:44:28;;;;;;;298.50;34.08;;;;;;;0.05;100.00;101510.91;5000447;28;20038;-83
2023/01/09 04:46:57;;;;;;;46.47;15.98;;;;;;;-0.55;100.00;101348.34;5000245;28;20572;-82
2023/01/09 04:49:23;;;;;;;45.28;11.70;;;;;;;-0.69;100.00;101329.47;4998036;28;20057;-82
2023/01/09 04:51:48;;;;;;;43.13;14.38;;;;;;;-0.65;100.00;101565.09;5000380;28;20188;-81
2023/01/09 04:54:14;;;;;;;33.38;11.27;;;;;;;-0.30;100.00;101497.69;5000412;28;20073;-83
2023/01/09 04:56:39;;;;;;;69.05;15.20;;;;;;;-0.20;100.00;101452.72;4998244;28;20072;-80
2023/01/09 04:59:06;;;;;;;149.02;22.83;;;;;;;-0.69;100.00;101338.91;5000608;28;20030;-81
2023/01/09 05:01:32;;;;;;;120.45;18.77;;;;;;;0.03;100.00;101417.09;4999756;28;20046;-80
2023/01/09 05:03:57;;;;;;;146.35;20.40;;;;;;;-0.51;100.00;101297.88;4997687;28;20058;-81
2023/01/09 05:06:23;;;;;;;65.65;20.30;;;;;;;-0.48;100.00;101286.03;4998449;28;20086;-78
2023/01/09 05:08:49;;;;;;;76.30;12.95;;;;;;;0.06;100.00;101394.91;4998290;28;20064;-78
2023/01/09 05:11:15;;;;;;;130.90;20.48;;;;;;;-0.44;100.00;101288.00;4999309;28;20033;-82
2023/01/09 05:13:40;;;;;;;233.45;19.73;;;;;;;0.13;100.00;101358.34;4999280;28;20163;-80
2023/01/09 05:16:06;;;;;;;245.70;28.67;;;;;;;-0.18;100.00;101254.22;4999965;28;20042;-83
2023/01/09 05:18:32;;;;;;;64.15;13.63;;;;;;;-0.70;100.00;101180.84;4998878;28;20061;-81
2023/01/09 05:20:57;;;;;;;85.63;17.45;;;;;;;0.48;100.00;101658.97;4998049;28;20041;-81
2023/01/09 05:23:22;;;;;;;77.20;13.13;;;;;;;-0.22;100.00;101206.72;4996403;28;20121;-78
2023/01/09 05:25:48;;;;;;;130.32;18.30;;;;;;;0.36;100.00;101645.31;5007850;28;20583;-81
2023/01/09 05:28:13;;;;;;;26.27;12.20;;;;;;;0.25;100.00;101295.31;5007252;28;20491;-80
2023/01/09 05:30:40;;;;;;;89.53;14.32;;;;;;;-0.45;100.00;101174.47;5005610;28;20486;-80
2023/01/09 05:33:05;;;;;;;90.10;16.70;;;;;;;0.11;100.00;101263.59;5002558;28;20050;-81
2023/01/09 05:35:31;;;;;;;120.13;21.52;;;;;;;-0.14;100.00;101269.97;4997352;28;20073;-80
2023/01/09 05:37:57;;;;;;;127.35;19.35;;;;;;;-0.55;100.00;101144.72;5005349;28;20068;-81
2023/01/09 05:40:22;;;;;;;100.70;18.10;;;;;;;0.22;100.00;101254.75;5002866;28;20506;-79
2023/01/09 05:42:48;;;;;;;40.67;10.68;;;;;;;0.02;100.00;101221.78;5004621;28;20046;-80
2023/01/09 05:45:13;;;;;;;71.43;17.05;;;;;;;0.05;100.00;101300.25;4995936;28;20777;-81
2023/01/09 05:47:39;;;;;;;197.93;32.35;;;;;;;-0.16;100.00;101134.88;5000289;28;20054;-81
2023/01/09 05:50:05;;;;;;;166.60;20.85;;;;;;;-0.30;100.00;101226.94;5001009;28;20442;-79
2023/01/09 05:52:30;;;;;;;59.85;16.20;;;;;;;0.63;100.00;101227.69;4998377;28;20069;-81
2023/01/09 05:54:56;;;;;;;88.30;16.90;;;;;;;-0.11;100.00;101135.13;5002797;28;20045;-80
2023/01/09 05:57:21;;;;;;;46.50;12.55;;;;;;;0.24;100.00;101223.88;5000466;28;20529;-79
2023/01/09 05:59:47;;;;;;;94.15;15.82;;;;;;;-0.12;100.00;101236.50;4996437;28;20148;-79
2023/01/09 06:02:12;;;;;;;254.15;26.60;;;;;;;-0.16;100.00;101342.91;5002513;28;20056;-81
2023/01/09 06:04:38;;;;;;;176.52;23.63;;;;;;;-0.65;100.00;101099.50;5007433;28;20128;-80
2023/01/09 06:07:03;;;;;;;170.35;20.80;;;;;;;-0.42;100.00;101159.22;5005932;28;20089;-79
2023/01/09 06:09:30;;;;;;;57.13;16.10;;;;;;;-0.14;100.00;101201.97;5005531;28;20064;-80
2023/01/09 06:11:55;;;;;;;82.75;17.63;;;;;;;-0.55;100.00;101128.38;4989189;28;20053;-79
2023/01/09 06:14:21;;;;;;;65.25;16.08;;;;;;;-0.73;100.00;101079.25;4997429;28;20488;-79
2023/01/09 06:16:47;;;;;;;88.40;17.00;;;;;;;0.02;100.00;101196.88;4994945;28;20038;-80
2023/01/09 06:19:12;;;;;;;95.25;21.88;;;;;;;0.03;100.00;101190.94;5009135;28;20473;-77
2023/01/09 06:21:38;;;;;;;131.60;15.50;;;;;;;-0.76;100.00;101084.25;4999800;28;20560;-78
2023/01/09 06:24:04;;;;;;;269.05;32.15;;;;;;;0.01;100.00;101207.13;5003086;28;20540;-83
2023/01/09 06:26:29;;;;;;;201.10;24.88;;;;;;;0.05;100.00;101550.53;4999689;28;20880;-82
2023/01/09 06:28:55;;;;;;;128.90;22.35;;;;;;;0.07;100.00;101543.78;5001698;28;20037;-80
2023/01/09 06:31:22;;;;;;;103.75;20.00;;;;;;;0.08;100.00;101611.75;4996781;28;20046;-82
2023/01/09 06:33:47;;;;;;;67.10;16.98;;;;;;;-0.43;100.00;101119.63;4995158;28;20054;-80
2023/01/09 06:36:13;;;;;;;159.52;21.42;;;;;;;-0.58;100.00;101112.75;4996939;28;20046;-83
2023/01/09 06:38:38;;;;;;;105.80;17.05;;;;;;;-0.06;100.00;101131.97;4995514;28;20427;-81
2023/01/09 06:41:04;;;;;;;188.68;25.13;;;;;;;-0.06;100.00;101512.88;4996907;28;20030;-85
2023/01/09 06:43:30;;;;;;;111.07;14.98;;;;;;;-0.19;100.00;101506.06;5005591;28;20130;-84
2023/01/09 06:45:56;;;;;;;34.60;11.88;;;;;;;-0.30;100.00;101187.38;5007665;28;20065;-83
2023/01/09 06:48:23;;;;;;;132.15;23.52;;;;;;;0.06;100.00;101213.44;5011135;28;20078;-81
2023/01/09 06:50:52;;;;;;;42.97;13.30;;;;;;;0.02;100.00;101245.88;5001996;28;20056;-77
2023/01/09 06:53:18;;;;;;;95.70;22.67;;;;;;;-0.07;100.00;101420.78;5003666;28;23701;-82
2023/01/09 06:55:44;;;;;;;41.47;16.15;;;;;;;-0.45;100.00;101193.41;5007876;28;20441;-86
2023/01/09 06:58:10;;;;;;;29.25;10.48;;;;;;;0.03;100.00;101286.38;5006164;28;20042;-86
2023/01/09 07:00:36;;;;;;;105.13;19.90;;;;;;;-0.05;100.00;101270.47;5001233;28;20624;-82
2023/01/09 07:03:02;;;;;;;50.58;11.52;;;;;;;-0.78;100.00;101313.47;5006327;28;20062;-80
2023/01/09 07:05:27;;;;;;;53.60;12.88;;;;;;;-0.20;100.00;101284.19;4995148;28;20056;-81
2023/01/09 07:07:53;;;;;;;40.17;12.38;;;;;;;-0.10;100.00;101255.53;5001972;28;20037;-80
2023/01/09 07:10:19;;;;;;;91.22;34.15;;;;;;;0.06;100.00;101304.59;5006767;28;20046;-82
2023/01/09 07:12:44;;;;;;;114.85;34.35;;;;;;;-0.28;100.00;101227.00;5003248;28;20058;-83
2023/01/09 07:15:10;;;;;;;75.07;25.40;;;;;;;-0.10;100.00;101594.31;5001631;28;22104;-78
2023/01/09 07:17:35;;;;;;;151.23;30.90;;;;;;;0.08;100.00;101318.50;5006458;28;20152;-76
2023/01/09 07:20:03;;;;;;;188.40;32.50;;;;;;;0.01;100.00;101656.94;5004863;28;20504;-79
2023/01/09 07:22:29;;;;;;;296.90;51.67;;;;;;;-0.05;100.00;101319.50;5001112;28;20050;-76
2023/01/09 07:24:54;;;;;;;154.63;40.17;;;;;;;-0.39;100.00;101189.44;4994878;28;20057;-78
2023/01/09 07:27:21;;;;;;;186.77;43.05;;;;;;;-0.01;100.00;101357.53;5003418;28;20088;-77
2023/01/09 07:29:46;;;;;;;79.70;28.20;;;;;;;-0.78;100.00;101182.06;4998655;28;20097;-76
2023/01/09 07:32:12;;;;;;;177.30;37.45;;;;;;;-0.53;100.00;101197.25;5011834;28;20428;-80
2023/01/09 07:34:37;;;;;;;74.20;32.33;;;;;;;-0.04;100.00;101281.69;5005376;28;20684;-79
2023/01/09 07:37:03;;;;;;;165.77;35.08;;;;;;;-0.50;100.00;101519.66;5003306;28;20062;-78
2023/01/09 07:39:28;;;;;;;107.70;28.88;;;;;;;0.12;100.00;101292.06;5006762;28;20477;-80
2023/01/09 07:41:53;;;;;;;65.10;20.15;;;;;;;-0.39;100.00;101238.41;5009564;28;20045;-77
2023/01/09 07:44:19;;;;;;;189.98;32.67;;;;;;;0.11;100.00;101367.69;4999208;28;20502;-80
2023/01/09 07:46:44;;;;;;;167.10;35.28;;;;;;;0.26;100.00;101289.34;5007323;28;20055;-81
2023/01/09 07:49:10;;;;;;;85.90;21.92;;;;;;;0.18;100.00;101611.50;5013699;28;20466;-86
2023/01/09 07:51:38;;;;;;;124.30;27.75;;;;;;;-0.17;100.00;101243.97;5005085;28;20045;-85
2023/01/09 07:54:03;;;;;;;152.65;24.90;;;;;;;-0.33;100.00;101149.41;5001351;28;20068;-88
2023/01/09 07:56:28;;;;;;;123.45;19.60;;;;;;;-0.26;100.00;101230.56;5016677;28;20037;-80
2023/01/09 07:58:54;;;;;;;152.05;27.65;;;;;;;-0.47;100.00;101125.44;5009535;28;20123;-81
2023/01/09 08:01:21;;;;;;;62.25;18.52;;;;;;;0.24;100.00;101536.16;5002874;28;20057;-83
2023/01/09 08:03:46;;;;;;;21.15;12.80;;;;;;;0.02;100.00;101144.41;4997063;28;20104;-82
2023/01/09 08:06:12;;;;;;;140.68;28.23;;;;;;;0.33;100.00;101598.66;5006959;28;20053;-81
2023/01/09 08:08:37;;;;;;;123.97;20.70;;;;;;;-0.02;100.00;101135.63;5007262;28;20154;-82
2023/01/09 08:11:03;;;;;;;92.53;25.88;;;;;;;0.02;100.00;101413.59;5006163;28;20052;-83
2023/01/09 08:13:28;;;;;;;98.32;29.30;;;;;;;-0.06;100.00;101094.97;5008875;28;20053;-85
2023/01/09 08:15:54;;;;;;;202.68;37.17;;;;;;;-0.20;100.00;101080.47;5013016;28;20053;-84
2023/01/09 08:18:19;;;;;;;150.05;38.10;;;;;;;-0.12;100.00;101058.53;5006527;28;20494;-79
2023/01/09 08:20:47;;;;;;;189.57;28.17;;;;;;;0.37;100.00;101482.75;5011802;28;20064;-83
2023/01/09 08:23:13;;;;;;;51.58;19.52;;;;;;;0.24;100.00;101116.38;5009781;28;20148;-84
2023/01/09 08:25:38;;;;;;;42.50;19.73;;;;;;;0.42;100.00;101049.31;5003834;28;20549;-84
2023/01/09 08:28:04;;;;;;;68.47;22.77;;;;;;;0.32;100.00;101075.47;5008882;28;20065;-82
2023/01/09 08:30:29;;;;;;;177.05;35.45;;;;;;;0.16;100.00;101136.63;5000996;28;20060;-84
2023/01/09 08:32:55;;;;;;;81.82;23.92;;;;;;;1.34;100.00;100988.34;5003343;28;20414;-85
2023/01/09 08:35:20;;;;;;;40.45;23.35;;;;;;;1.09;100.00;101067.28;5008460;28;20077;-84
2023/01/09 08:37:47;;;;;;;69.15;35.65;;;;;;;1.00;100.00;100958.31;5003687;28;20034;-87
2023/01/09 08:40:14;;;;;;;117.70;46.65;;;;;;;0.54;100.00;100832.16;5010920;28;20111;-80
2023/01/09 08:48:09;;;;;;;80.30;41.03;;;;;;;0.90;100.00;100688.34;5000316;28;20107;-83
2023/01/09 08:50:35;;;;;;;86.53;42.72;;;;;;;1.10;100.00;100572.94;5002731;28;20041;-81
2023/01/09 08:53:00;;;;;;;81.85;34.85;;;;;;;1.02;100.00;100786.16;5001024;28;20049;-80
2023/01/09 08:55:26;;;;;;;94.22;31.25;;;;;;;1.45;100.00;100838.06;4995846;28;20613;-79
2023/01/09 08:57:53;;;;;;;55.38;29.20;;;;;;;1.03;100.00;100465.84;5008445;28;20060;-83
2023/01/09 09:00:20;;;;;;;56.22;24.63;;;;;;;1.33;100.00;100746.16;5013920;28;20053;-78
2023/01/09 09:02:53;;;;;;;56.05;33.95;;;;;;;1.95;100.00;100509.81;5004904;28;20057;-80
2023/01/09 09:05:19;;;;;;;80.25;47.58;;;;;;;1.89;100.00;100450.06;5000430;28;20041;-83
2023/01/09 09:07:50;;;;;;;83.35;43.97;;;;;;;1.66;100.00;100468.25;5012833;28;20056;-86
2023/01/09 09:10:16;;;;;;;89.13;35.83;;;;;;;1.30;100.00;100387.59;5009748;28;20115;-80
2023/01/09 09:12:42;;;;;;;59.10;33.10;;;;;;;2.47;100.00;100490.03;5008329;28;20042;-87
2023/01/09 09:15:18;;;;;;;88.15;40.80;;;;;;;2.48;100.00;100517.69;5011855;28;20060;-89
2023/01/09 09:17:44;;;;;;;74.85;39.50;;;;;;;2.54;100.00;100543.81;5008958;28;20120;-86
2023/01/09 09:20:11;;;;;;;72.43;45.42;;;;;;;2.23;100.00;100554.81;5007506;28;20136;-89
2023/01/09 09:22:36;;;;;;;91.40;45.95;;;;;;;2.18;100.00;100633.97;5010232;28;20065;-86
2023/01/09 09:25:03;;;;;;;84.30;48.22;;;;;;;2.29;100.00;100610.28;5009557;28;20058;-87
2023/01/09 09:27:30;;;;;;;61.15;39.45;;;;;;;1.55;100.00;100686.75;4996055;28;20108;-89
2023/01/09 09:29:55;;;;;;;64.32;36.30;;;;;;;2.14;100.00;100855.59;5006258;28;20038;-85
2023/01/09 09:32:21;;;;;;;82.75;33.00;;;;;;;1.74;100.00;100747.00;5006843;28;20040;-87
2023/01/09 09:34:47;;;;;;;47.53;30.30;;;;;;;2.41;100.00;100943.00;5024057;28;20057;-85
2023/01/09 09:37:12;;;;;;;30.95;18.58;;;;;;;2.24;100.00;100937.13;5014942;28;20089;-84
2023/01/09 09:39:37;;;;;;;41.25;24.20;;;;;;;2.73;100.00;101022.94;5007590;28;20426;-86
2023/01/09 09:45:30;;;;;;;38.03;18.05;;;;;;;2.84;100.00;101162.44;5006171;28;20099;-89
2023/01/09 09:48:14;;;;;;;22.98;14.88;;;;;;;2.71;100.00;101392.50;5011148;28;20073;-89
2023/01/09 09:50:56;;;;;;;24.75;14.48;;;;;;;2.62;100.00;101025.88;5007736;28;20159;-87
2023/01/09 09:53:40;;;;;;;33.63;19.52;;;;;;;2.21;100.00;100689.34;5014129;28;20029;-89
2023/01/09 09:56:11;;;;;;;32.97;18.63;;;;;;;2.43;100.00;100506.28;5011059;28;20034;-88
2023/01/09 09:58:40;;;;;;;25.27;16.02;;;;;;;2.72;100.00;100565.16;5006259;28;20042;-91
2023/01/09 10:01:07;;;;;;;37.00;19.13;;;;;;;2.48;100.00;100119.78;5004062;28;20046;-89
2023/01/09 10:03:38;;;;;;;28.85;18.92;;;;;;;3.12;100.00;100078.25;5004508;28;20149;-86
2023/01/09 10:06:18;;;;;;;27.55;18.80;;;;;;;2.85;100.00;99967.00;5011175;28;20058;-87
2023/01/09 10:08:49;;;;;;;30.60;20.40;;;;;;;2.95;100.00;99862.75;5003820;28;20111;-87
2023/01/09 10:11:22;;;;;;;30.05;19.25;;;;;;;2.48;100.00;99779.69;5009846;28;20038;-87
2023/01/09 10:14:05;;;;;;;53.27;21.07;;;;;;;2.65;100.00;99611.72;5008356;28;20057;-87
2023/01/09 10:16:35;;;;;;;31.95;18.35;;;;;;;3.11;100.00;99546.03;4993815;28;20046;-85
2023/01/09 10:19:09;;;;;;;40.40;23.95;;;;;;;3.00;100.00;99407.66;5007406;28;20490;-84
2023/01/09 10:22:02;;;;;;;36.03;19.70;;;;;;;2.97;100.00;99288.38;5016050;28;20045;-85
2023/01/09 10:24:40;;;;;;;23.52;15.07;;;;;;;3.07;100.00;99424.16;5005739;28;20047;-87
2023/01/09 10:27:27;;;;;;;24.75;15.23;;;;;;;3.03;100.00;99406.81;5017086;28;20050;-85
2023/01/09 10:29:59;;;;;;;32.45;18.33;;;;;;;3.28;100.00;99357.03;5017246;28;20072;-82
2023/01/09 10:32:30;;;;;;;40.15;16.33;;;;;;;3.03;100.00;99360.19;5016093;28;20084;-84
2023/01/09 10:34:58;;;;;;;24.42;14.40;;;;;;;3.37;100.00;99576.66;5012443;28;20033;-83
2023/01/09 10:37:27;;;;;;;33.15;16.70;;;;;;;3.14;100.00;99572.00;5009717;28;20049;-82
2023/01/09 10:40:21;;;;;;;22.88;14.63;;;;;;;3.34;100.00;99428.81;5015276;28;20069;-81
2023/01/09 10:43:01;;;;;;;27.58;15.40;;;;;;;3.27;100.00;99406.25;5023051;28;20042;-83
2023/01/09 10:45:41;;;;;;;25.45;14.93;;;;;;;3.43;100.00;99434.13;5010508;28;20046;-84
2023/01/09 10:48:23;;;;;;;24.02;17.73;;;;;;;3.26;100.00;99394.16;5024597;28;20056;-86
2023/01/09 10:50:51;;;;;;;29.52;18.05;;;;;;;3.43;100.00;99563.78;5014943;28;20030;-80
2023/01/09 10:53:24;;;;;;;25.27;16.58;;;;;;;2.74;100.00;99340.78;5032119;28;20022;-88
2023/01/09 10:55:54;;;;;;;34.28;19.25;;;;;;;2.87;100.00;99353.91;5026105;28;20057;-81
2023/01/09 10:58:21;;;;;;;30.10;19.85;;;;;;;2.98;100.00;99346.28;5026185;28;20048;-79
2023/01/09 11:00:48;;;;;;;28.55;17.73;;;;;;;3.56;100.00;99498.28;5018994;28;20100;-85
2023/01/09 11:03:18;;;;;;;36.95;20.75;;;;;;;3.91;100.00;99547.19;5011020;28;20080;-80
2023/01/09 11:05:52;;;;;;;25.23;16.70;;;;;;;4.06;100.00;99613.97;5017794;28;20134;-87
2023/01/09 11:08:24;;;;;;;24.10;15.93;;;;;;;3.56;100.00;99642.66;5002515;28;20034;-81
2023/01/09 11:10:58;;;;;;;28.02;15.82;;;;;;;4.15;100.00;99802.75;5009567;28;20034;-84
2023/01/09 11:13:32;;;;;;;22.75;16.20;;;;;;;4.16;100.00;99903.16;5011628;28;20058;-84
2023/01/09 11:16:15;;;;;;;20.73;15.00;;;;;;;3.64;100.00;99895.28;5005620;28;20054;-83
2023/01/09 11:19:14;;;;;;;32.28;18.48;;;;;;;3.36;100.00;100078.84;5007385;28;20417;-84
2023/01/09 11:21:40;;;;;;;30.90;18.52;;;;;;;3.83;100.00;100283.19;5024636;28;20053;-86
2023/01/09 11:24:19;;;;;;;26.00;18.95;;;;;;;4.14;100.00;100352.31;5011767;28;20510;-87